sensor_id;sensor_type;location;lat;lon;timestamp;temperature;humidity
7046;DHT22;3564;53.326;10.356;2023-07-29T00:01:01;22.80;99.90
7046;DHT22;3564;53.326;10.356;2023-07-29T00:03:27;22.80;99.90
7046;DHT22;3564;53.326;10.356;2023-07-29T00:05:52;22.80;99.90
7046;DHT22;3564;53.326;10.356;2023-07-29T00:08:18;22.70;99.90
7046;DHT22;3564;53.326;10.356;2023-07-29T00:10:43;22.70;99.90
7046;DHT22;3564;53.326;10.356;2023-07-29T00:13:09;22.60;99.90
7046;DHT22;3564;53.326;10.356;2023-07-29T00:15:35;22.60;99.90
7046;DHT22;3564;53.326;10.356;2023-07-29T00:18:03;22.60;99.90
7046;DHT22;3564;53.326;10.356;2023-07-29T00:20:29;22.50;99.90
7046;DHT22;3564;53.326;10.356;2023-07-29T00:22:54;22.50;99.90
7046;DHT22;3564;53.326;10.356;2023-07-29T00:25:21;22.50;99.90
7046;DHT22;3564;53.326;10.356;2023-07-29T00:27:46;22.50;99.90
7046;DHT22;3564;53.326;10.356;2023-07-29T00:30:12;22.40;99.90
7046;DHT22;3564;53.326;10.356;2023-07-29T00:32:38;22.40;99.90
7046;DHT22;3564;53.326;10.356;2023-07-29T00:35:03;22.40;99.90
7046;DHT22;3564;53.326;10.356;2023-07-29T00:37:30;22.30;99.90
7046;DHT22;3564;53.326;10.356;2023-07-29T00:39:56;22.30;99.90
7046;DHT22;3564;53.326;10.356;2023-07-29T00:42:21;22.30;99.90
7046;DHT22;3564;53.326;10.356;2023-07-29T00:44:47;22.30;99.90
7046;DHT22;3564;53.326;10.356;2023-07-29T00:47:15;22.30;99.90
7046;DHT22;3564;53.326;10.356;2023-07-29T00:49:43;22.20;99.90
7046;DHT22;3564;53.326;10.356;2023-07-29T00:52:10;22.20;99.90
7046;DHT22;3564;53.326;10.356;2023-07-29T00:54:38;22.20;99.90
7046;DHT22;3564;53.326;10.356;2023-07-29T00:57:04;22.20;99.90
7046;DHT22;3564;53.326;10.356;2023-07-29T00:59:30;22.20;99.90
7046;DHT22;3564;53.326;10.356;2023-07-29T01:01:57;22.10;99.90
7046;DHT22;3564;53.326;10.356;2023-07-29T01:04:23;22.10;99.90
7046;DHT22;3564;53.326;10.356;2023-07-29T01:07:03;22.10;99.90
7046;DHT22;3564;53.326;10.356;2023-07-29T01:12:42;22.00;99.90
7046;DHT22;3564;53.326;10.356;2023-07-29T01:15:25;22.00;99.90
7046;DHT22;3564;53.326;10.356;2023-07-29T01:17:57;22.00;99.90
7046;DHT22;3564;53.326;10.356;2023-07-29T01:20:25;21.90;99.90
7046;DHT22;3564;53.326;10.356;2023-07-29T01:22:51;21.90;99.90
7046;DHT22;3564;53.326;10.356;2023-07-29T01:25:17;21.90;99.90
7046;DHT22;3564;53.326;10.356;2023-07-29T01:27:48;22.00;99.90
7046;DHT22;3564;53.326;10.356;2023-07-29T01:30:13;22.00;99.90
7046;DHT22;3564;53.326;10.356;2023-07-29T01:32:54;22.00;99.90
7046;DHT22;3564;53.326;10.356;2023-07-29T01:35:33;22.00;99.90
7046;DHT22;3564;53.326;10.356;2023-07-29T01:38:12;21.90;99.90
7046;DHT22;3564;53.326;10.356;2023-07-29T01:40:40;22.00;99.90
7046;DHT22;3564;53.326;10.356;2023-07-29T01:43:06;21.90;99.90
7046;DHT22;3564;53.326;10.356;2023-07-29T01:45:34;22.00;99.90
7046;DHT22;3564;53.326;10.356;2023-07-29T01:48:04;22.00;99.90
7046;DHT22;3564;53.326;10.356;2023-07-29T01:50:30;22.00;99.90
7046;DHT22;3564;53.326;10.356;2023-07-29T01:53:00;22.00;99.90
7046;DHT22;3564;53.326;10.356;2023-07-29T01:55:26;22.00;99.90
7046;DHT22;3564;53.326;10.356;2023-07-29T01:57:51;22.00;99.90
7046;DHT22;3564;53.326;10.356;2023-07-29T02:00:18;22.00;99.90
7046;DHT22;3564;53.326;10.356;2023-07-29T02:02:44;22.00;99.90
7046;DHT22;3564;53.326;10.356;2023-07-29T02:05:10;22.00;99.90
7046;DHT22;3564;53.326;10.356;2023-07-29T02:07:35;22.00;99.90
7046;DHT22;3564;53.326;10.356;2023-07-29T02:10:01;22.00;99.90
7046;DHT22;3564;53.326;10.356;2023-07-29T02:12:26;22.00;99.90
7046;DHT22;3564;53.326;10.356;2023-07-29T02:14:55;22.00;99.90
7046;DHT22;3564;53.326;10.356;2023-07-29T02:17:20;22.00;99.90
7046;DHT22;3564;53.326;10.356;2023-07-29T02:19:49;22.00;99.90
7046;DHT22;3564;53.326;10.356;2023-07-29T02:22:17;22.00;99.90
7046;DHT22;3564;53.326;10.356;2023-07-29T02:24:44;22.00;99.90
7046;DHT22;3564;53.326;10.356;2023-07-29T02:27:09;22.00;99.90
7046;DHT22;3564;53.326;10.356;2023-07-29T02:29:38;22.00;99.90
7046;DHT22;3564;53.326;10.356;2023-07-29T02:32:03;22.00;99.90
7046;DHT22;3564;53.326;10.356;2023-07-29T02:34:29;22.00;99.90
7046;DHT22;3564;53.326;10.356;2023-07-29T02:36:55;22.00;99.90
7046;DHT22;3564;53.326;10.356;2023-07-29T02:39:23;22.00;99.90
7046;DHT22;3564;53.326;10.356;2023-07-29T02:41:49;22.00;99.90
7046;DHT22;3564;53.326;10.356;2023-07-29T02:44:18;21.90;99.90
7046;DHT22;3564;53.326;10.356;2023-07-29T02:46:44;22.00;99.90
7046;DHT22;3564;53.326;10.356;2023-07-29T02:49:10;21.90;99.90
7046;DHT22;3564;53.326;10.356;2023-07-29T02:51:35;21.90;99.90
7046;DHT22;3564;53.326;10.356;2023-07-29T02:54:01;21.90;99.90
7046;DHT22;3564;53.326;10.356;2023-07-29T02:56:27;21.80;99.90
7046;DHT22;3564;53.326;10.356;2023-07-29T02:58:52;21.80;99.90
7046;DHT22;3564;53.326;10.356;2023-07-29T03:01:18;21.80;99.90
7046;DHT22;3564;53.326;10.356;2023-07-29T03:03:44;21.80;99.90
7046;DHT22;3564;53.326;10.356;2023-07-29T03:06:12;21.80;99.90
7046;DHT22;3564;53.326;10.356;2023-07-29T03:08:38;21.80;99.90
7046;DHT22;3564;53.326;10.356;2023-07-29T03:11:11;21.80;99.90
7046;DHT22;3564;53.326;10.356;2023-07-29T03:13:38;21.80;99.90
7046;DHT22;3564;53.326;10.356;2023-07-29T03:16:16;21.90;99.90
7046;DHT22;3564;53.326;10.356;2023-07-29T03:18:43;21.80;99.90
7046;DHT22;3564;53.326;10.356;2023-07-29T03:21:12;21.90;99.90
7046;DHT22;3564;53.326;10.356;2023-07-29T03:23:38;21.80;99.90
7046;DHT22;3564;53.326;10.356;2023-07-29T03:26:04;21.80;99.90
7046;DHT22;3564;53.326;10.356;2023-07-29T03:28:36;21.80;99.90
7046;DHT22;3564;53.326;10.356;2023-07-29T03:31:02;21.80;99.90
7046;DHT22;3564;53.326;10.356;2023-07-29T03:33:28;21.80;99.90
7046;DHT22;3564;53.326;10.356;2023-07-29T03:35:54;21.80;99.90
7046;DHT22;3564;53.326;10.356;2023-07-29T03:38:19;21.70;99.90
7046;DHT22;3564;53.326;10.356;2023-07-29T03:40:48;21.70;99.90
7046;DHT22;3564;53.326;10.356;2023-07-29T03:43:16;21.70;99.90
7046;DHT22;3564;53.326;10.356;2023-07-29T03:45:42;21.70;99.90
7046;DHT22;3564;53.326;10.356;2023-07-29T03:48:08;21.70;99.90
7046;DHT22;3564;53.326;10.356;2023-07-29T03:50:35;21.70;99.90
7046;DHT22;3564;53.326;10.356;2023-07-29T03:53:02;21.70;99.90
7046;DHT22;3564;53.326;10.356;2023-07-29T03:55:28;21.70;99.90
7046;DHT22;3564;53.326;10.356;2023-07-29T03:57:58;21.70;99.90
7046;DHT22;3564;53.326;10.356;2023-07-29T04:00:25;21.80;99.90
7046;DHT22;3564;53.326;10.356;2023-07-29T04:02:50;21.70;99.90
7046;DHT22;3564;53.326;10.356;2023-07-29T04:05:16;21.70;99.90
7046;DHT22;3564;53.326;10.356;2023-07-29T04:07:42;21.70;99.90
7046;DHT22;3564;53.326;10.356;2023-07-29T04:10:11;21.80;99.90
7046;DHT22;3564;53.326;10.356;2023-07-29T04:12:37;21.80;99.90
7046;DHT22;3564;53.326;10.356;2023-07-29T04:15:03;21.80;99.90
7046;DHT22;3564;53.326;10.356;2023-07-29T04:17:29;21.80;99.90
7046;DHT22;3564;53.326;10.356;2023-07-29T04:19:54;21.80;99.90
7046;DHT22;3564;53.326;10.356;2023-07-29T04:22:20;21.80;99.90
7046;DHT22;3564;53.326;10.356;2023-07-29T04:24:46;21.80;99.90
7046;DHT22;3564;53.326;10.356;2023-07-29T04:27:17;21.80;99.90
7046;DHT22;3564;53.326;10.356;2023-07-29T04:29:43;21.80;99.90
7046;DHT22;3564;53.326;10.356;2023-07-29T04:32:08;21.80;99.90
7046;DHT22;3564;53.326;10.356;2023-07-29T04:34:34;21.80;99.90
7046;DHT22;3564;53.326;10.356;2023-07-29T04:36:59;21.80;99.90
7046;DHT22;3564;53.326;10.356;2023-07-29T04:39:28;21.80;99.90
7046;DHT22;3564;53.326;10.356;2023-07-29T04:41:53;21.80;99.90
7046;DHT22;3564;53.326;10.356;2023-07-29T04:44:19;21.90;99.90
7046;DHT22;3564;53.326;10.356;2023-07-29T04:46:45;21.80;99.90
7046;DHT22;3564;53.326;10.356;2023-07-29T04:49:10;21.80;99.90
7046;DHT22;3564;53.326;10.356;2023-07-29T04:51:36;21.80;99.90
7046;DHT22;3564;53.326;10.356;2023-07-29T04:54:02;21.90;99.90
7046;DHT22;3564;53.326;10.356;2023-07-29T04:56:30;21.90;99.90
7046;DHT22;3564;53.326;10.356;2023-07-29T04:58:59;21.90;99.90
7046;DHT22;3564;53.326;10.356;2023-07-29T05:01:25;21.90;99.90
7046;DHT22;3564;53.326;10.356;2023-07-29T05:03:50;21.90;99.90
7046;DHT22;3564;53.326;10.356;2023-07-29T05:06:16;21.90;99.90
7046;DHT22;3564;53.326;10.356;2023-07-29T05:08:41;21.90;99.90
7046;DHT22;3564;53.326;10.356;2023-07-29T05:11:07;21.90;99.90
7046;DHT22;3564;53.326;10.356;2023-07-29T05:13:32;21.90;99.90
7046;DHT22;3564;53.326;10.356;2023-07-29T05:15:58;21.90;99.90
7046;DHT22;3564;53.326;10.356;2023-07-29T05:18:24;21.90;99.90
7046;DHT22;3564;53.326;10.356;2023-07-29T05:20:49;21.90;99.90
7046;DHT22;3564;53.326;10.356;2023-07-29T05:23:18;21.90;99.90
7046;DHT22;3564;53.326;10.356;2023-07-29T05:25:43;22.00;99.90
7046;DHT22;3564;53.326;10.356;2023-07-29T05:28:09;21.90;99.90
7046;DHT22;3564;53.326;10.356;2023-07-29T05:30:34;22.00;99.90
7046;DHT22;3564;53.326;10.356;2023-07-29T05:33:03;21.90;99.90
7046;DHT22;3564;53.326;10.356;2023-07-29T05:35:29;22.00;99.90
7046;DHT22;3564;53.326;10.356;2023-07-29T05:37:55;22.00;99.90
7046;DHT22;3564;53.326;10.356;2023-07-29T05:40:20;22.00;99.90
7046;DHT22;3564;53.326;10.356;2023-07-29T05:42:46;22.00;99.90
7046;DHT22;3564;53.326;10.356;2023-07-29T05:45:13;22.10;99.90
7046;DHT22;3564;53.326;10.356;2023-07-29T05:47:38;22.10;99.90
7046;DHT22;3564;53.326;10.356;2023-07-29T05:50:04;22.00;99.90
7046;DHT22;3564;53.326;10.356;2023-07-29T05:52:31;22.10;99.90
7046;DHT22;3564;53.326;10.356;2023-07-29T05:54:57;22.10;99.90
7046;DHT22;3564;53.326;10.356;2023-07-29T05:57:22;22.10;99.90
7046;DHT22;3564;53.326;10.356;2023-07-29T05:59:51;22.10;99.90
7046;DHT22;3564;53.326;10.356;2023-07-29T06:02:16;22.20;99.90
7046;DHT22;3564;53.326;10.356;2023-07-29T06:04:42;22.20;99.90
7046;DHT22;3564;53.326;10.356;2023-07-29T06:07:07;22.30;99.90
7046;DHT22;3564;53.326;10.356;2023-07-29T06:09:33;22.20;99.90
7046;DHT22;3564;53.326;10.356;2023-07-29T06:11:59;22.20;99.90
7046;DHT22;3564;53.326;10.356;2023-07-29T06:14:24;22.30;99.90
7046;DHT22;3564;53.326;10.356;2023-07-29T06:16:50;22.20;99.90
7046;DHT22;3564;53.326;10.356;2023-07-29T06:19:15;22.30;99.90
7046;DHT22;3564;53.326;10.356;2023-07-29T06:21:41;22.30;99.90
7046;DHT22;3564;53.326;10.356;2023-07-29T06:24:07;22.40;99.90
7046;DHT22;3564;53.326;10.356;2023-07-29T06:26:32;22.40;99.90
7046;DHT22;3564;53.326;10.356;2023-07-29T06:28:58;22.40;99.90
7046;DHT22;3564;53.326;10.356;2023-07-29T06:31:24;22.50;99.90
7046;DHT22;3564;53.326;10.356;2023-07-29T06:33:52;22.50;99.90
7046;DHT22;3564;53.326;10.356;2023-07-29T06:36:20;22.60;99.90
7046;DHT22;3564;53.326;10.356;2023-07-29T06:38:45;22.60;99.90
7046;DHT22;3564;53.326;10.356;2023-07-29T06:41:11;22.60;99.90
7046;DHT22;3564;53.326;10.356;2023-07-29T06:43:36;22.70;99.90
7046;DHT22;3564;53.326;10.356;2023-07-29T06:46:02;22.80;99.90
7046;DHT22;3564;53.326;10.356;2023-07-29T06:48:27;22.70;99.90
7046;DHT22;3564;53.326;10.356;2023-07-29T06:50:53;22.80;99.90
7046;DHT22;3564;53.326;10.356;2023-07-29T06:53:20;22.80;99.90
7046;DHT22;3564;53.326;10.356;2023-07-29T06:55:46;22.90;99.90
7046;DHT22;3564;53.326;10.356;2023-07-29T06:58:12;22.90;99.90
7046;DHT22;3564;53.326;10.356;2023-07-29T07:00:37;22.90;99.90
7046;DHT22;3564;53.326;10.356;2023-07-29T07:03:03;23.00;99.90
7046;DHT22;3564;53.326;10.356;2023-07-29T07:05:28;23.00;99.90
7046;DHT22;3564;53.326;10.356;2023-07-29T07:07:54;23.10;99.90
7046;DHT22;3564;53.326;10.356;2023-07-29T07:10:19;23.20;99.90
7046;DHT22;3564;53.326;10.356;2023-07-29T07:12:48;23.30;99.90
7046;DHT22;3564;53.326;10.356;2023-07-29T07:15:14;23.30;99.90
7046;DHT22;3564;53.326;10.356;2023-07-29T07:17:39;23.40;99.90
7046;DHT22;3564;53.326;10.356;2023-07-29T07:20:11;23.60;99.90
7046;DHT22;3564;53.326;10.356;2023-07-29T07:22:37;23.60;99.90
7046;DHT22;3564;53.326;10.356;2023-07-29T07:25:02;23.70;99.90
7046;DHT22;3564;53.326;10.356;2023-07-29T07:27:28;23.70;99.90
7046;DHT22;3564;53.326;10.356;2023-07-29T07:29:54;23.70;99.90
7046;DHT22;3564;53.326;10.356;2023-07-29T07:32:22;23.80;99.90
7046;DHT22;3564;53.326;10.356;2023-07-29T07:34:48;23.90;99.90
7046;DHT22;3564;53.326;10.356;2023-07-29T07:37:13;23.80;99.90
7046;DHT22;3564;53.326;10.356;2023-07-29T07:39:39;23.90;99.90
7046;DHT22;3564;53.326;10.356;2023-07-29T07:42:05;23.80;99.90
7046;DHT22;3564;53.326;10.356;2023-07-29T07:44:31;23.80;99.90
7046;DHT22;3564;53.326;10.356;2023-07-29T07:46:56;23.80;99.90
7046;DHT22;3564;53.326;10.356;2023-07-29T07:49:22;23.70;99.90
7046;DHT22;3564;53.326;10.356;2023-07-29T07:51:48;23.80;99.90
7046;DHT22;3564;53.326;10.356;2023-07-29T07:54:13;23.70;99.90
7046;DHT22;3564;53.326;10.356;2023-07-29T07:56:43;23.80;99.90
7046;DHT22;3564;53.326;10.356;2023-07-29T07:59:08;23.80;99.90
7046;DHT22;3564;53.326;10.356;2023-07-29T08:01:40;23.90;99.90
7046;DHT22;3564;53.326;10.356;2023-07-29T08:04:06;23.90;99.90
7046;DHT22;3564;53.326;10.356;2023-07-29T08:06:32;23.90;99.90
7046;DHT22;3564;53.326;10.356;2023-07-29T08:08:58;23.90;99.90
7046;DHT22;3564;53.326;10.356;2023-07-29T08:11:24;24.00;99.90
7046;DHT22;3564;53.326;10.356;2023-07-29T08:13:50;24.00;99.90
7046;DHT22;3564;53.326;10.356;2023-07-29T08:16:15;24.00;99.90
7046;DHT22;3564;53.326;10.356;2023-07-29T08:18:41;24.10;99.90
7046;DHT22;3564;53.326;10.356;2023-07-29T08:21:07;24.20;99.90
7046;DHT22;3564;53.326;10.356;2023-07-29T08:23:33;24.40;99.90
7046;DHT22;3564;53.326;10.356;2023-07-29T08:26:01;24.50;99.90
7046;DHT22;3564;53.326;10.356;2023-07-29T08:28:47;24.60;99.90
7046;DHT22;3564;53.326;10.356;2023-07-29T08:31:13;24.50;99.90
7046;DHT22;3564;53.326;10.356;2023-07-29T08:33:39;24.50;99.90
7046;DHT22;3564;53.326;10.356;2023-07-29T08:36:07;24.40;99.90
7046;DHT22;3564;53.326;10.356;2023-07-29T08:38:33;24.20;99.90
7046;DHT22;3564;53.326;10.356;2023-07-29T08:41:14;24.20;99.90
7046;DHT22;3564;53.326;10.356;2023-07-29T08:43:56;24.20;99.90
7046;DHT22;3564;53.326;10.356;2023-07-29T08:46:25;24.20;99.90
7046;DHT22;3564;53.326;10.356;2023-07-29T08:48:51;24.20;99.90
7046;DHT22;3564;53.326;10.356;2023-07-29T08:51:17;24.20;99.90
7046;DHT22;3564;53.326;10.356;2023-07-29T08:53:44;24.30;99.90
7046;DHT22;3564;53.326;10.356;2023-07-29T08:56:10;24.30;99.90
7046;DHT22;3564;53.326;10.356;2023-07-29T08:58:39;24.30;99.90
7046;DHT22;3564;53.326;10.356;2023-07-29T09:01:06;24.30;99.90
7046;DHT22;3564;53.326;10.356;2023-07-29T09:03:34;24.20;99.90
7046;DHT22;3564;53.326;10.356;2023-07-29T09:06:02;24.20;99.90
7046;DHT22;3564;53.326;10.356;2023-07-29T09:08:30;24.00;99.90
7046;DHT22;3564;53.326;10.356;2023-07-29T09:10:56;24.10;99.90
7046;DHT22;3564;53.326;10.356;2023-07-29T09:13:22;24.00;99.90
7046;DHT22;3564;53.326;10.356;2023-07-29T09:15:54;24.00;99.90
7046;DHT22;3564;53.326;10.356;2023-07-29T09:18:21;24.00;99.90
7046;DHT22;3564;53.326;10.356;2023-07-29T09:20:48;24.00;99.90
7046;DHT22;3564;53.326;10.356;2023-07-29T09:23:14;24.00;99.90
7046;DHT22;3564;53.326;10.356;2023-07-29T09:25:40;23.90;99.90
7046;DHT22;3564;53.326;10.356;2023-07-29T09:28:11;23.90;99.90
7046;DHT22;3564;53.326;10.356;2023-07-29T09:30:41;23.90;99.90
7046;DHT22;3564;53.326;10.356;2023-07-29T09:33:14;23.80;99.90
7046;DHT22;3564;53.326;10.356;2023-07-29T09:35:39;23.80;99.90
7046;DHT22;3564;53.326;10.356;2023-07-29T09:38:06;23.80;99.90
7046;DHT22;3564;53.326;10.356;2023-07-29T09:40:36;23.80;99.90
7046;DHT22;3564;53.326;10.356;2023-07-29T09:43:03;23.90;99.90
7046;DHT22;3564;53.326;10.356;2023-07-29T09:45:29;23.90;99.90
7046;DHT22;3564;53.326;10.356;2023-07-29T09:47:58;24.00;99.90
7046;DHT22;3564;53.326;10.356;2023-07-29T09:50:30;24.10;99.90
7046;DHT22;3564;53.326;10.356;2023-07-29T09:52:56;24.20;99.90
7046;DHT22;3564;53.326;10.356;2023-07-29T09:55:25;24.40;99.90
7046;DHT22;3564;53.326;10.356;2023-07-29T09:57:58;24.40;99.90
7046;DHT22;3564;53.326;10.356;2023-07-29T10:00:27;24.40;99.90
7046;DHT22;3564;53.326;10.356;2023-07-29T10:02:54;24.40;99.90
7046;DHT22;3564;53.326;10.356;2023-07-29T10:05:20;24.40;99.90
7046;DHT22;3564;53.326;10.356;2023-07-29T10:07:50;24.40;99.90
7046;DHT22;3564;53.326;10.356;2023-07-29T10:10:16;24.50;99.90
7046;DHT22;3564;53.326;10.356;2023-07-29T10:12:42;24.40;99.90
7046;DHT22;3564;53.326;10.356;2023-07-29T10:15:09;24.40;99.90
7046;DHT22;3564;53.326;10.356;2023-07-29T10:17:36;24.50;99.90
7046;DHT22;3564;53.326;10.356;2023-07-29T10:20:09;24.60;99.90
7046;DHT22;3564;53.326;10.356;2023-07-29T10:22:40;24.60;99.90
7046;DHT22;3564;53.326;10.356;2023-07-29T10:25:29;24.70;99.90
7046;DHT22;3564;53.326;10.356;2023-07-29T10:28:08;24.70;99.90
7046;DHT22;3564;53.326;10.356;2023-07-29T10:30:39;24.80;99.90
7046;DHT22;3564;53.326;10.356;2023-07-29T10:33:05;25.00;99.90
7046;DHT22;3564;53.326;10.356;2023-07-29T10:35:38;25.00;99.90
7046;DHT22;3564;53.326;10.356;2023-07-29T10:38:05;25.00;99.90
7046;DHT22;3564;53.326;10.356;2023-07-29T10:40:48;25.10;99.90
7046;DHT22;3564;53.326;10.356;2023-07-29T10:43:19;25.20;99.90
7046;DHT22;3564;53.326;10.356;2023-07-29T10:45:49;25.20;99.90
7046;DHT22;3564;53.326;10.356;2023-07-29T10:51:27;25.20;99.90
7046;DHT22;3564;53.326;10.356;2023-07-29T10:54:14;25.20;99.90
7046;DHT22;3564;53.326;10.356;2023-07-29T10:56:41;25.00;99.90
7046;DHT22;3564;53.326;10.356;2023-07-29T11:01:57;25.00;99.90
7046;DHT22;3564;53.326;10.356;2023-07-29T11:04:31;25.10;99.90
7046;DHT22;3564;53.326;10.356;2023-07-29T11:09:54;25.20;99.90
7046;DHT22;3564;53.326;10.356;2023-07-29T11:20:11;25.60;99.90
7046;DHT22;3564;53.326;10.356;2023-07-29T11:22:40;25.60;99.90
7046;DHT22;3564;53.326;10.356;2023-07-29T11:25:08;25.70;99.90
7046;DHT22;3564;53.326;10.356;2023-07-29T11:27:34;25.70;99.90
7046;DHT22;3564;53.326;10.356;2023-07-29T11:30:01;25.70;99.90
7046;DHT22;3564;53.326;10.356;2023-07-29T11:32:27;25.70;99.90
7046;DHT22;3564;53.326;10.356;2023-07-29T11:34:53;25.60;99.90
7046;DHT22;3564;53.326;10.356;2023-07-29T11:37:18;25.60;99.90
7046;DHT22;3564;53.326;10.356;2023-07-29T11:39:46;25.60;99.90
7046;DHT22;3564;53.326;10.356;2023-07-29T11:42:12;25.50;99.90
7046;DHT22;3564;53.326;10.356;2023-07-29T11:44:38;25.50;99.90
7046;DHT22;3564;53.326;10.356;2023-07-29T11:47:10;25.40;99.90
7046;DHT22;3564;53.326;10.356;2023-07-29T11:49:38;25.40;99.90
7046;DHT22;3564;53.326;10.356;2023-07-29T11:52:15;25.40;99.90
7046;DHT22;3564;53.326;10.356;2023-07-29T11:54:49;25.40;99.90
7046;DHT22;3564;53.326;10.356;2023-07-29T11:57:16;25.50;99.90
7046;DHT22;3564;53.326;10.356;2023-07-29T11:59:45;25.60;99.90
7046;DHT22;3564;53.326;10.356;2023-07-29T12:02:15;25.80;99.90
7046;DHT22;3564;53.326;10.356;2023-07-29T12:04:41;25.80;99.90
7046;DHT22;3564;53.326;10.356;2023-07-29T12:07:08;25.90;99.90
7046;DHT22;3564;53.326;10.356;2023-07-29T12:09:37;25.90;99.90
7046;DHT22;3564;53.326;10.356;2023-07-29T12:12:04;25.90;99.90
7046;DHT22;3564;53.326;10.356;2023-07-29T12:14:30;25.80;99.90
7046;DHT22;3564;53.326;10.356;2023-07-29T12:17:00;25.80;99.90
7046;DHT22;3564;53.326;10.356;2023-07-29T12:19:32;25.80;99.90
7046;DHT22;3564;53.326;10.356;2023-07-29T12:21:58;25.80;99.90
7046;DHT22;3564;53.326;10.356;2023-07-29T12:24:24;25.80;99.90
7046;DHT22;3564;53.326;10.356;2023-07-29T12:26:52;25.80;99.90
7046;DHT22;3564;53.326;10.356;2023-07-29T12:29:19;25.90;99.90
7046;DHT22;3564;53.326;10.356;2023-07-29T12:31:58;25.90;99.90
7046;DHT22;3564;53.326;10.356;2023-07-29T12:34:25;26.00;99.90
7046;DHT22;3564;53.326;10.356;2023-07-29T12:36:55;26.00;99.90
7046;DHT22;3564;53.326;10.356;2023-07-29T12:39:28;26.00;99.90
7046;DHT22;3564;53.326;10.356;2023-07-29T12:41:56;26.10;99.90
7046;DHT22;3564;53.326;10.356;2023-07-29T12:44:25;26.10;99.90
7046;DHT22;3564;53.326;10.356;2023-07-29T12:46:51;26.30;99.90
7046;DHT22;3564;53.326;10.356;2023-07-29T12:49:17;26.50;99.90
7046;DHT22;3564;53.326;10.356;2023-07-29T12:51:43;26.60;99.90
7046;DHT22;3564;53.326;10.356;2023-07-29T12:54:09;26.70;99.90
7046;DHT22;3564;53.326;10.356;2023-07-29T12:56:35;26.70;99.90
7046;DHT22;3564;53.326;10.356;2023-07-29T12:59:01;26.80;99.90
7046;DHT22;3564;53.326;10.356;2023-07-29T13:01:27;26.80;99.30
7046;DHT22;3564;53.326;10.356;2023-07-29T13:03:58;26.70;99.00
7046;DHT22;3564;53.326;10.356;2023-07-29T13:06:24;26.60;99.30
7046;DHT22;3564;53.326;10.356;2023-07-29T13:08:50;26.70;99.80
7046;DHT22;3564;53.326;10.356;2023-07-29T13:11:16;26.70;99.50
7046;DHT22;3564;53.326;10.356;2023-07-29T13:13:42;26.70;99.20
7046;DHT22;3564;53.326;10.356;2023-07-29T13:16:07;26.70;99.20
7046;DHT22;3564;53.326;10.356;2023-07-29T13:18:36;26.80;99.70
7046;DHT22;3564;53.326;10.356;2023-07-29T13:21:01;26.80;99.60
7046;DHT22;3564;53.326;10.356;2023-07-29T13:23:27;26.90;99.20
7046;DHT22;3564;53.326;10.356;2023-07-29T13:25:58;26.80;98.90
7046;DHT22;3564;53.326;10.356;2023-07-29T13:28:29;26.90;99.30
7046;DHT22;3564;53.326;10.356;2023-07-29T13:30:55;26.90;98.90
7046;DHT22;3564;53.326;10.356;2023-07-29T13:33:20;26.90;97.90
7046;DHT22;3564;53.326;10.356;2023-07-29T13:35:46;26.90;98.30
7046;DHT22;3564;53.326;10.356;2023-07-29T13:38:12;26.90;98.40
7046;DHT22;3564;53.326;10.356;2023-07-29T13:40:40;26.90;98.50
7046;DHT22;3564;53.326;10.356;2023-07-29T13:43:06;26.80;98.60
7046;DHT22;3564;53.326;10.356;2023-07-29T13:45:33;26.70;98.40
7046;DHT22;3564;53.326;10.356;2023-07-29T13:47:58;26.60;98.50
7046;DHT22;3564;53.326;10.356;2023-07-29T13:50:24;26.60;98.60
7046;DHT22;3564;53.326;10.356;2023-07-29T13:52:49;26.70;99.40
7046;DHT22;3564;53.326;10.356;2023-07-29T13:55:15;26.70;98.70
7046;DHT22;3564;53.326;10.356;2023-07-29T13:57:40;26.70;98.30
7046;DHT22;3564;53.326;10.356;2023-07-29T14:00:07;26.70;98.70
7046;DHT22;3564;53.326;10.356;2023-07-29T14:02:33;26.80;98.40
7046;DHT22;3564;53.326;10.356;2023-07-29T14:05:02;26.90;97.90
7046;DHT22;3564;53.326;10.356;2023-07-29T14:07:28;27.00;97.70
7046;DHT22;3564;53.326;10.356;2023-07-29T14:09:53;27.10;97.50
7046;DHT22;3564;53.326;10.356;2023-07-29T14:12:22;27.00;96.70
7046;DHT22;3564;53.326;10.356;2023-07-29T14:14:47;27.00;97.40
7046;DHT22;3564;53.326;10.356;2023-07-29T14:17:13;27.00;97.40
7046;DHT22;3564;53.326;10.356;2023-07-29T14:19:42;27.00;96.30
7046;DHT22;3564;53.326;10.356;2023-07-29T14:22:07;27.20;97.30
7046;DHT22;3564;53.326;10.356;2023-07-29T14:24:36;27.20;97.30
7046;DHT22;3564;53.326;10.356;2023-07-29T14:27:02;27.30;96.40
7046;DHT22;3564;53.326;10.356;2023-07-29T14:29:31;27.30;96.20
7046;DHT22;3564;53.326;10.356;2023-07-29T14:31:57;27.30;96.60
7046;DHT22;3564;53.326;10.356;2023-07-29T14:34:22;27.40;96.60
7046;DHT22;3564;53.326;10.356;2023-07-29T14:36:48;27.60;96.40
7046;DHT22;3564;53.326;10.356;2023-07-29T14:39:16;27.70;96.20
7046;DHT22;3564;53.326;10.356;2023-07-29T14:41:42;27.90;96.30
7046;DHT22;3564;53.326;10.356;2023-07-29T14:44:07;28.10;96.30
7046;DHT22;3564;53.326;10.356;2023-07-29T14:46:33;28.10;95.20
7046;DHT22;3564;53.326;10.356;2023-07-29T14:48:59;28.30;95.10
7046;DHT22;3564;53.326;10.356;2023-07-29T14:51:24;28.60;95.00
7046;DHT22;3564;53.326;10.356;2023-07-29T14:53:53;29.00;94.80
7046;DHT22;3564;53.326;10.356;2023-07-29T14:56:18;29.30;93.60
7046;DHT22;3564;53.326;10.356;2023-07-29T14:58:45;29.50;93.00
7046;DHT22;3564;53.326;10.356;2023-07-29T15:01:10;29.70;90.70
7046;DHT22;3564;53.326;10.356;2023-07-29T15:03:36;29.80;90.90
7046;DHT22;3564;53.326;10.356;2023-07-29T15:06:01;30.00;90.30
7046;DHT22;3564;53.326;10.356;2023-07-29T15:08:31;30.20;90.00
7046;DHT22;3564;53.326;10.356;2023-07-29T15:10:59;30.30;89.10
7046;DHT22;3564;53.326;10.356;2023-07-29T15:13:25;30.50;90.00
7046;DHT22;3564;53.326;10.356;2023-07-29T15:15:50;30.70;89.30
7046;DHT22;3564;53.326;10.356;2023-07-29T15:18:16;30.80;87.40
7046;DHT22;3564;53.326;10.356;2023-07-29T15:20:42;31.10;88.40
7046;DHT22;3564;53.326;10.356;2023-07-29T15:23:10;31.20;86.00
7046;DHT22;3564;53.326;10.356;2023-07-29T15:25:42;31.40;86.40
7046;DHT22;3564;53.326;10.356;2023-07-29T15:28:07;31.50;85.30
7046;DHT22;3564;53.326;10.356;2023-07-29T15:30:35;31.50;83.80
7046;DHT22;3564;53.326;10.356;2023-07-29T15:33:01;31.60;85.80
7046;DHT22;3564;53.326;10.356;2023-07-29T15:35:27;31.70;84.30
7046;DHT22;3564;53.326;10.356;2023-07-29T15:37:55;31.80;85.00
7046;DHT22;3564;53.326;10.356;2023-07-29T15:40:21;31.90;83.80
7046;DHT22;3564;53.326;10.356;2023-07-29T15:42:46;31.90;82.50
7046;DHT22;3564;53.326;10.356;2023-07-29T15:45:12;32.10;83.80
7046;DHT22;3564;53.326;10.356;2023-07-29T15:47:37;32.00;80.90
7046;DHT22;3564;53.326;10.356;2023-07-29T15:50:03;32.00;81.80
7046;DHT22;3564;53.326;10.356;2023-07-29T15:52:29;32.00;82.90
7046;DHT22;3564;53.326;10.356;2023-07-29T15:54:58;31.80;82.80
7046;DHT22;3564;53.326;10.356;2023-07-29T15:57:23;31.90;83.70
7046;DHT22;3564;53.326;10.356;2023-07-29T15:59:49;31.90;82.40
7046;DHT22;3564;53.326;10.356;2023-07-29T16:02:14;31.80;81.20
7046;DHT22;3564;53.326;10.356;2023-07-29T16:04:40;31.80;81.20